Time;durP1;ratioP1;P1;durP2;ratioP2;P2;SDS_P1;SDS_P2;PMS_P1;PMS_P2;Temp;Humidity;BMP_temperature;BMP_pressure;BME280_temperature;BME280_humidity;BME280_pressure;Samples;Min_cycle;Max_cycle;Signal;HPM_P1;HPM_P2
2022/06/14 00:02:00;;;;;;;6.70;4.40;;;12.70;99.90;;;;;;4955508;28;20212;-75
2022/06/14 00:04:25;;;;;;;4.97;4.47;;;12.60;99.90;;;;;;4955704;28;20219;-76
2022/06/14 00:06:51;;;;;;;9.13;4.50;;;12.60;99.90;;;;;;4955670;28;20544;-75
2022/06/14 00:09:17;;;;;;;6.57;3.80;;;12.60;99.90;;;;;;4955505;28;20714;-75
2022/06/14 00:11:42;;;;;;;6.97;4.80;;;12.60;99.90;;;;;;4955016;28;20212;-75
2022/06/14 00:14:10;;;;;;;10.50;4.53;;;12.60;99.90;;;;;;4955407;28;20173;-75
2022/06/14 00:16:37;;;;;;;7.53;4.60;;;12.60;99.90;;;;;;4955604;28;20169;-76
2022/06/14 00:19:06;;;;;;;9.03;4.80;;;12.50;99.90;;;;;;4956079;28;20409;-75
2022/06/14 00:21:33;;;;;;;7.17;4.37;;;12.40;99.90;;;;;;4955546;28;20443;-76
2022/06/14 00:24:01;;;;;;;8.20;5.40;;;12.40;99.90;;;;;;4955825;28;20487;-75
2022/06/14 00:26:27;;;;;;;7.57;5.67;;;12.30;99.90;;;;;;4955222;28;20498;-75
2022/06/14 00:28:52;;;;;;;13.87;5.00;;;12.30;99.90;;;;;;4953983;29;20506;-75
2022/06/14 00:31:21;;;;;;;7.77;3.97;;;12.20;99.90;;;;;;4954547;28;20216;-75
2022/06/14 00:33:47;;;;;;;9.10;4.53;;;12.20;99.90;;;;;;4954800;28;20185;-75
2022/06/14 00:36:29;;;;;;;6.83;4.53;;;12.20;99.90;;;;;;4954655;28;20423;-75
2022/06/14 00:39:00;;;;;;;4.60;4.20;;;12.20;99.90;;;;;;4954921;28;20563;-75
2022/06/14 00:41:39;;;;;;;11.70;4.33;;;12.20;99.90;;;;;;4954380;28;20486;-75
2022/06/14 00:44:10;;;;;;;4.70;4.20;;;12.20;99.90;;;;;;4954807;28;20491;-75
2022/06/14 00:46:50;;;;;;;15.20;5.13;;;12.30;99.90;;;;;;4954635;28;20428;-75
2022/06/14 00:49:21;;;;;;;8.77;4.90;;;12.30;99.90;;;;;;4955003;28;20470;-74
2022/06/14 00:52:05;;;;;;;10.23;4.80;;;12.20;99.90;;;;;;4954254;28;20480;-74
2022/06/14 00:54:36;;;;;;;6.20;5.27;;;12.20;99.90;;;;;;4954587;28;20420;-75
2022/06/14 00:57:08;;;;;;;11.30;4.90;;;12.10;99.90;;;;;;4954456;28;20416;-75
2022/06/14 00:59:37;;;;;;;8.07;4.60;;;12.10;99.90;;;;;;4954513;28;20911;-74
2022/06/14 02:32:51;;;;;;;11.77;6.37;;;11.00;99.90;;;;;;5158474;23;20494;-75
2022/06/14 02:35:29;;;;;;;8.40;5.80;;;11.00;99.90;;;;;;4975850;28;20780;-75
2022/06/14 02:38:17;;;;;;;8.27;5.20;;;11.00;99.90;;;;;;4982430;28;20410;-72
2022/06/14 02:40:48;;;;;;;11.27;5.93;;;10.90;99.90;;;;;;4995300;28;20399;-75
2022/06/14 02:43:20;;;;;;;8.13;5.23;;;10.90;99.90;;;;;;4995522;28;20414;-76
2022/06/14 02:45:55;;;;;;;5.93;5.43;;;10.90;99.90;;;;;;4995294;28;20402;-75
2022/06/14 02:48:36;;;;;;;6.90;5.20;;;10.90;99.90;;;;;;4995469;28;20413;-76
2022/06/14 02:51:24;;;;;;;7.93;6.07;;;10.90;99.90;;;;;;4994816;28;20478;-76
2022/06/14 02:53:53;;;;;;;11.70;5.27;;;10.90;99.90;;;;;;4995233;28;20406;-76
2022/06/14 02:56:32;;;;;;;12.20;5.93;;;10.80;99.90;;;;;;4995157;28;20407;-75
2022/06/14 02:59:17;;;;;;;8.00;5.70;;;10.80;99.90;;;;;;4995133;28;20410;-76
2022/06/14 03:01:57;;;;;;;8.47;6.00;;;10.80;99.90;;;;;;4995044;28;20437;-74
2022/06/14 03:04:34;;;;;;;13.57;6.37;;;10.80;99.90;;;;;;4996376;28;20406;-74
2022/06/14 03:07:17;;;;;;;8.83;6.50;;;10.80;99.90;;;;;;4995834;28;20414;-75
2022/06/14 03:09:46;;;;;;;8.00;6.20;;;10.80;99.90;;;;;;4995503;28;20406;-75
2022/06/14 03:12:38;;;;;;;11.80;5.80;;;10.70;99.90;;;;;;4995479;28;20458;-75
2022/06/14 03:15:21;;;;;;;8.50;6.33;;;10.80;99.90;;;;;;4994160;28;20398;-75
2022/06/14 03:18:08;;;;;;;11.73;6.43;;;10.70;99.90;;;;;;4994883;28;20406;-75
2022/06/14 03:20:43;;;;;;;8.90;7.10;;;10.70;99.90;;;;;;4994759;28;20406;-73
2022/06/14 03:23:22;;;;;;;14.77;6.47;;;10.70;99.90;;;;;;4994664;28;20736;-75
2022/06/14 03:26:13;;;;;;;11.03;5.97;;;10.70;99.90;;;;;;4995206;28;20406;-75
2022/06/14 03:28:48;;;;;;;9.50;7.03;;;10.70;99.90;;;;;;4967704;28;20999;-75
2022/06/14 03:31:22;;;;;;;8.47;6.60;;;10.70;99.90;;;;;;4995640;28;20461;-75
2022/06/14 03:34:02;;;;;;;7.70;6.13;;;10.70;99.90;;;;;;4994914;28;20767;-75
2022/06/14 03:36:28;;;;;;;12.00;6.50;;;10.60;99.90;;;;;;4994745;28;20427;-75
2022/06/14 03:38:59;;;;;;;9.27;5.50;;;10.60;99.90;;;;;;4994292;28;20422;-75
2022/06/14 03:41:30;;;;;;;8.53;6.30;;;10.60;99.90;;;;;;4994233;28;20817;-76
2022/06/14 03:43:58;;;;;;;8.90;6.80;;;10.60;99.90;;;;;;4994268;28;20421;-75
2022/06/14 03:46:31;;;;;;;12.93;6.60;;;10.60;99.90;;;;;;4994210;28;20509;-76
2022/06/14 03:49:07;;;;;;;14.03;6.83;;;10.60;99.90;;;;;;4994038;28;20498;-75
2022/06/14 03:51:51;;;;;;;9.23;6.50;;;10.60;99.90;;;;;;4993802;28;20492;-76
2022/06/14 03:54:41;;;;;;;9.40;6.77;;;10.70;99.90;;;;;;4994155;28;20407;-76
2022/06/14 03:57:29;;;;;;;7.37;6.30;;;10.70;99.90;;;;;;4994036;28;20429;-76
2022/06/14 04:00:25;;;;;;;12.53;7.73;;;10.80;99.90;;;;;;4993821;28;20954;-75
2022/06/14 04:03:18;;;;;;;12.13;7.33;;;10.80;99.90;;;;;;4993769;28;20438;-75
2022/06/14 04:06:27;;;;;;;12.43;6.53;;;10.80;99.90;;;;;;4993952;28;20411;-75
2022/06/14 04:09:18;;;;;;;14.63;7.17;;;11.00;99.90;;;;;;4993761;28;20498;-74
2022/06/14 04:11:56;;;;;;;7.13;6.33;;;11.00;99.90;;;;;;4993268;28;20523;-75
2022/06/14 04:14:54;;;;;;;7.67;6.70;;;11.10;99.90;;;;;;4992444;28;20989;-75
2022/06/14 04:17:29;;;;;;;8.03;6.37;;;11.20;99.90;;;;;;4992418;28;20517;-76
2022/06/14 04:20:38;;;;;;;8.70;6.90;;;11.20;99.90;;;;;;4993468;28;20755;-75
2022/06/14 04:23:26;;;;;;;10.17;6.80;;;11.30;99.90;;;;;;4988967;28;20454;-74
2022/06/14 04:26:00;;;;;;;7.03;6.30;;;11.40;99.90;;;;;;4994240;28;20481;-75
2022/06/14 04:28:42;;;;;;;14.70;6.40;;;11.50;99.90;;;;;;4994888;28;20421;-73
2022/06/14 04:31:19;;;;;;;12.13;6.83;;;11.60;99.90;;;;;;4994624;28;20474;-74
2022/06/14 04:33:57;;;;;;;8.67;6.00;;;11.70;99.90;;;;;;4993353;28;20457;-75
2022/06/14 04:36:37;;;;;;;10.17;6.83;;;11.80;99.90;;;;;;4993183;28;20829;-75
2022/06/14 04:39:46;;;;;;;12.40;7.30;;;11.90;99.90;;;;;;4993276;28;20465;-74
2022/06/14 04:42:45;;;;;;;10.93;6.70;;;12.00;99.90;;;;;;4984647;28;20478;-75
2022/06/14 04:45:22;;;;;;;14.40;7.30;;;12.20;99.90;;;;;;4989656;28;20433;-74
2022/06/14 04:47:56;;;;;;;9.33;6.53;;;12.40;99.90;;;;;;4992902;28;20422;-74
2022/06/14 04:50:31;;;;;;;13.07;7.13;;;12.50;99.90;;;;;;4992836;28;20458;-74
2022/06/14 04:53:02;;;;;;;7.23;6.37;;;12.70;99.90;;;;;;4991575;28;20494;-74
2022/06/14 04:55:42;;;;;;;9.47;6.33;;;12.80;99.90;;;;;;4993028;28;20411;-74
2022/06/14 04:58:12;;;;;;;10.03;6.80;;;13.00;99.90;;;;;;4992694;28;20410;-72
2022/06/14 05:00:45;;;;;;;7.30;6.03;;;13.50;99.90;;;;;;4992539;28;20427;-72
2022/06/14 05:03:26;;;;;;;8.47;5.47;;;15.50;99.90;;;;;;4992682;28;20481;-74
2022/06/14 05:06:00;;;;;;;5.37;4.63;;;17.90;99.90;;;;;;4992652;28;20425;-72
2022/06/14 05:08:45;;;;;;;7.27;4.70;;;19.90;99.90;;;;;;4992667;28;20430;-73
2022/06/14 05:11:23;;;;;;;8.37;4.80;;;21.40;99.90;;;;;;4992207;28;20469;-74
2022/06/14 05:14:16;;;;;;;7.03;4.30;;;22.60;99.90;;;;;;4992398;28;20422;-72
2022/06/14 05:16:46;;;;;;;6.27;4.47;;;23.20;99.90;;;;;;4992360;28;20513;-72
2022/06/14 05:19:34;;;;;;;4.90;3.90;;;23.60;99.90;;;;;;4992645;28;20513;-76
2022/06/14 05:22:08;;;;;;;6.20;4.00;;;24.50;99.90;;;;;;4992094;28;20537;-73
2022/06/14 05:24:35;;;;;;;5.73;4.13;;;25.10;99.90;;;;;;4986837;28;20436;-71
2022/06/14 05:27:06;;;;;;;8.63;4.67;;;25.00;99.90;;;;;;4981941;28;20529;-73
2022/06/14 05:29:40;;;;;;;7.93;5.20;;;25.40;99.90;;;;;;4970988;28;20451;-73
2022/06/14 05:32:17;;;;;;;11.10;4.20;;;26.10;99.90;;;;;;4970419;28;20850;-74
2022/06/14 05:35:02;;;;;;;7.40;5.77;;;25.50;99.90;;;;;;4970995;28;20415;-73
2022/06/14 05:37:53;;;;;;;8.30;4.50;;;25.40;99.90;;;;;;4970304;28;20412;-73
2022/06/14 05:40:37;;;;;;;7.90;3.83;;;24.90;99.90;;;;;;4971198;28;20419;-73
2022/06/14 05:43:36;;;;;;;6.30;4.80;;;24.70;99.90;;;;;;4971536;28;20446;-73
2022/06/14 05:46:08;;;;;;;5.67;4.20;;;24.00;99.90;;;;;;4963967;28;20523;-73
2022/06/14 05:48:42;;;;;;;7.57;4.40;;;23.20;99.90;;;;;;4972664;28;20837;-73
2022/06/14 05:51:11;;;;;;;12.00;5.63;;;22.90;99.90;;;;;;4972410;28;20501;-76
2022/06/14 05:53:51;;;;;;;10.50;4.63;;;22.90;99.90;;;;;;4972598;28;20510;-75
2022/06/14 05:56:31;;;;;;;9.10;4.60;;;22.80;99.90;;;;;;4972844;28;20427;-76
2022/06/14 05:59:03;;;;;;;4.50;4.20;;;22.90;99.90;;;;;;4972622;28;20419;-76
2022/06/14 06:01:38;;;;;;;9.00;4.53;;;22.80;99.90;;;;;;4971198;28;20959;-78
2022/06/14 06:04:23;;;;;;;8.60;4.93;;;22.90;99.90;;;;;;4972612;28;20415;-76
2022/06/14 06:06:54;;;;;;;6.60;4.33;;;23.10;99.90;;;;;;4972446;28;20412;-76
2022/06/14 06:09:36;;;;;;;7.17;4.80;;;23.00;99.90;;;;;;4972619;28;20415;-76
2022/06/14 06:12:17;;;;;;;9.70;4.90;;;22.90;99.90;;;;;;4972543;28;20474;-75
2022/06/14 06:14:52;;;;;;;8.47;5.47;;;22.90;99.90;;;;;;4972577;28;20522;-75
2022/06/14 06:17:29;;;;;;;12.43;5.50;;;22.70;99.90;;;;;;4972767;28;20415;-76
2022/06/14 06:20:06;;;;;;;7.50;6.10;;;22.60;99.90;;;;;;4972430;28;20415;-76
2022/06/14 06:22:41;;;;;;;18.60;5.87;;;22.80;99.90;;;;;;4972452;28;20482;-76
2022/06/14 06:25:20;;;;;;;9.10;5.87;;;22.90;99.90;;;;;;4972683;28;20422;-76
2022/06/14 06:28:00;;;;;;;8.03;5.90;;;22.90;99.90;;;;;;4973217;28;20892;-77
2022/06/14 06:30:32;;;;;;;14.10;5.80;;;22.90;99.90;;;;;;4972963;28;20873;-76
2022/06/14 06:32:58;;;;;;;11.03;5.37;;;22.90;99.90;;;;;;4972228;28;21063;-77
2022/06/14 06:35:36;;;;;;;11.10;6.73;;;23.00;99.90;;;;;;4972255;28;20506;-77
2022/06/14 06:38:20;;;;;;;8.57;5.97;;;22.80;99.90;;;;;;4972253;28;20204;-76
2022/06/14 06:43:40;;;;;;;11.50;6.50;;;23.20;99.90;;;;;;4972492;28;20445;-76
2022/06/14 06:46:12;;;;;;;12.97;6.57;;;23.20;99.90;;;;;;4972087;28;20908;-76
2022/06/14 06:48:43;;;;;;;16.10;7.23;;;23.30;99.90;;;;;;4972709;28;20188;-76
2022/06/14 06:51:16;;;;;;;12.00;7.30;;;23.40;99.90;;;;;;4975531;28;20463;-77
2022/06/14 06:54:02;;;;;;;13.17;6.40;;;23.20;99.90;;;;;;4975915;28;20924;-76
2022/06/14 06:56:33;;;;;;;10.93;6.70;;;23.60;99.90;;;;;;4975704;28;20434;-77
2022/06/14 06:59:04;;;;;;;10.00;5.47;;;24.00;99.90;;;;;;4975715;28;20418;-76
2022/06/14 07:01:33;;;;;;;13.97;6.50;;;24.00;99.90;;;;;;4974089;28;20864;-76
2022/06/14 07:04:20;;;;;;;9.57;6.30;;;23.90;99.90;;;;;;4975627;28;20435;-77
2022/06/14 07:06:52;;;;;;;15.20;6.63;;;24.10;99.90;;;;;;4975745;28;20419;-77
2022/06/14 07:09:52;;;;;;;7.60;5.27;;;23.90;99.90;;;;;;4975830;28;20788;-76
2022/06/14 07:12:27;;;;;;;6.73;4.83;;;23.80;99.90;;;;;;4975158;28;20520;-77
2022/06/14 07:15:00;;;;;;;10.63;5.67;;;23.60;99.90;;;;;;4975400;28;20757;-77
2022/06/14 07:18:03;;;;;;;8.33;5.50;;;24.00;99.90;;;;;;4975446;28;20416;-77
2022/06/14 07:20:31;;;;;;;7.03;4.73;;;24.60;99.90;;;;;;4966303;28;20463;-75
2022/06/14 07:23:04;;;;;;;12.10;5.10;;;25.10;99.90;;;;;;4974960;28;20443;-76
2022/06/14 07:25:52;;;;;;;8.20;4.77;;;24.90;99.90;;;;;;4975517;28;20963;-77
2022/06/14 07:28:50;;;;;;;9.53;6.07;;;24.90;99.90;;;;;;4975264;28;20497;-77
2022/06/14 07:31:24;;;;;;;11.20;6.17;;;24.60;99.90;;;;;;4975870;28;20545;-77
2022/06/14 07:33:50;;;;;;;8.93;5.40;;;24.80;99.90;;;;;;4976644;28;20419;-76
2022/06/14 07:36:33;;;;;;;7.23;5.03;;;24.90;99.90;;;;;;4975813;28;20784;-76
2022/06/14 07:39:02;;;;;;;10.43;5.27;;;24.60;99.90;;;;;;4975059;28;20180;-76
2022/06/14 07:41:42;;;;;;;5.80;5.03;;;24.80;99.90;;;;;;4974750;28;20435;-77
2022/06/14 07:44:29;;;;;;;8.10;5.20;;;25.10;99.90;;;;;;4974985;28;20793;-76
2022/06/14 07:46:54;;;;;;;10.30;5.80;;;25.10;99.90;;;;;;4974817;28;20443;-77
2022/06/14 07:49:33;;;;;;;8.63;4.83;;;25.60;99.90;;;;;;4974839;28;20459;-77
2022/06/14 07:52:25;;;;;;;9.17;5.60;;;26.00;99.90;;;;;;4974328;28;20216;-77
2022/06/14 07:54:57;;;;;;;4.33;3.93;;;26.50;99.90;;;;;;4974670;28;20494;-76
2022/06/14 07:57:29;;;;;;;14.13;4.60;;;26.40;99.90;;;;;;4975004;28;20419;-76
2022/06/14 08:01:07;;;;;;;8.83;4.23;;;26.40;99.90;;;;;;4974236;28;20921;-76
2022/06/14 08:02:53;;;;;;;7.67;4.70;;;26.20;99.90;;;;;;4974104;28;20445;-76
2022/06/14 08:05:27;;;;;;;14.33;6.13;;;25.70;99.90;;;;;;4973291;28;20474;-76
2022/06/14 08:07:56;;;;;;;6.73;4.23;;;25.80;99.90;;;;;;4974369;28;20514;-76
2022/06/14 08:10:27;;;;;;;6.57;4.47;;;26.40;99.90;;;;;;4974300;28;20463;-76
2022/06/14 08:13:00;;;;;;;8.00;4.60;;;27.10;99.90;;;;;;4972831;28;20439;-76
2022/06/14 08:15:35;;;;;;;8.10;4.87;;;27.60;99.90;;;;;;4974506;28;20420;-76
2022/06/14 08:18:04;;;;;;;7.90;4.10;;;27.30;99.90;;;;;;4974210;28;20419;-76
2022/06/14 08:20:42;;;;;;;6.87;4.30;;;27.30;99.90;;;;;;4974100;28;20855;-76
2022/06/14 08:23:25;;;;;;;13.40;4.50;;;27.60;99.90;;;;;;4974159;28;20419;-74
2022/06/14 08:25:55;;;;;;;11.20;4.30;;;28.00;99.90;;;;;;4973918;28;20503;-76
2022/06/14 08:28:29;;;;;;;7.53;4.30;;;28.40;99.90;;;;;;4973975;28;20502;-76
2022/06/14 08:31:04;;;;;;;8.10;3.37;;;28.90;99.90;;;;;;4973370;28;20483;-76
2022/06/14 08:33:53;;;;;;;5.27;3.77;;;28.80;99.90;;;;;;4974045;28;20430;-76
2022/06/14 08:36:26;;;;;;;6.83;4.27;;;28.70;99.90;;;;;;4973934;28;20419;-76
2022/06/14 08:38:55;;;;;;;9.97;3.87;;;28.80;98.20;;;;;;4973926;28;20416;-75
2022/06/14 08:41:47;;;;;;;8.20;4.53;;;29.00;98.10;;;;;;4973530;28;20444;-76
2022/06/14 08:44:20;;;;;;;8.80;4.73;;;28.80;97.10;;;;;;4973820;28;20417;-75
2022/06/14 08:47:22;;;;;;;6.50;3.03;;;29.00;99.90;;;;;;4973555;28;20866;-76
2022/06/14 08:50:08;;;;;;;7.70;4.30;;;29.60;98.30;;;;;;4973572;28;20422;-75
2022/06/14 08:53:17;;;;;;;5.87;3.93;;;29.60;97.30;;;;;;4973199;28;20454;-76
2022/06/14 08:56:03;;;;;;;4.73;4.00;;;29.80;97.00;;;;;;4973501;28;20783;-75
2022/06/14 08:59:02;;;;;;;8.23;3.87;;;29.50;96.50;;;;;;4973588;28;20403;-76
2022/06/14 09:01:50;;;;;;;9.17;4.70;;;29.60;94.70;;;;;;4973240;28;20434;-76
2022/06/14 09:04:47;;;;;;;11.83;3.80;;;30.10;95.60;;;;;;4973517;28;20407;-75
2022/06/14 09:07:18;;;;;;;6.13;3.67;;;30.00;93.50;;;;;;4973340;28;20408;-76
2022/06/14 09:10:21;;;;;;;6.07;3.40;;;29.10;92.90;;;;;;4973112;28;20923;-75
2022/06/14 09:13:07;;;;;;;8.80;4.30;;;29.10;94.10;;;;;;4971900;28;20493;-76
2022/06/14 09:16:02;;;;;;;9.37;4.77;;;29.60;94.90;;;;;;4973379;28;20404;-76
2022/06/14 09:18:55;;;;;;;6.50;3.60;;;29.60;93.60;;;;;;4973709;28;20502;-76
2022/06/14 09:21:45;;;;;;;13.13;3.80;;;30.10;93.20;;;;;;4973405;28;21071;-76
2022/06/14 09:24:37;;;;;;;15.77;4.50;;;30.00;93.00;;;;;;4973245;28;20486;-76
2022/06/14 09:27:37;;;;;;;7.17;3.50;;;30.00;92.60;;;;;;4972914;28;20406;-76
2022/06/14 09:30:11;;;;;;;7.37;4.47;;;29.40;92.20;;;;;;4972879;28;20815;-75
2022/06/14 09:33:14;;;;;;;11.77;3.93;;;29.10;93.40;;;;;;4972552;28;20473;-76
2022/06/14 09:35:43;;;;;;;5.90;3.80;;;28.80;94.30;;;;;;4973051;28;20436;-76
2022/06/14 09:38:53;;;;;;;5.50;3.60;;;29.20;95.40;;;;;;4972834;28;20463;-74
2022/06/14 09:41:42;;;;;;;4.90;3.10;;;29.50;94.20;;;;;;4953581;28;20439;-74
2022/06/14 09:44:13;;;;;;;3.17;2.40;;;29.60;89.20;;;;;;4972847;28;20404;-74
2022/06/14 09:47:06;;;;;;;7.20;3.10;;;29.00;89.60;;;;;;4972899;28;20418;-76
2022/06/14 09:49:47;;;;;;;4.77;2.63;;;28.90;89.50;;;;;;4973076;28;20415;-75
2022/06/14 09:52:31;;;;;;;7.87;3.30;;;28.90;90.50;;;;;;4972434;28;20522;-76
2022/06/14 09:55:38;;;;;;;5.40;3.33;;;28.80;91.00;;;;;;4972716;28;21216;-75
2022/06/14 09:58:11;;;;;;;4.93;3.27;;;28.50;91.30;;;;;;4972680;28;20416;-75
2022/06/14 10:01:06;;;;;;;11.60;3.13;;;29.30;92.50;;;;;;4972612;28;20407;-74
2022/06/14 10:03:52;;;;;;;7.30;3.67;;;29.40;92.80;;;;;;4972780;28;20846;-76
2022/06/14 10:06:32;;;;;;;4.87;3.37;;;30.00;93.60;;;;;;4972524;28;20439;-75
2022/06/14 10:09:00;;;;;;;6.20;4.27;;;30.10;91.80;;;;;;4972292;28;20443;-75
2022/06/14 10:11:34;;;;;;;6.60;3.23;;;30.60;90.80;;;;;;4972056;28;20465;-76
2022/06/14 10:14:20;;;;;;;4.73;3.63;;;30.90;91.60;;;;;;4972683;28;20439;-74
2022/06/14 10:17:21;;;;;;;4.30;2.83;;;30.70;87.20;;;;;;4972123;28;20932;-75
2022/06/14 10:19:58;;;;;;;3.93;2.30;;;30.00;85.50;;;;;;4972285;28;20407;-76
2022/06/14 10:22:35;;;;;;;4.67;3.83;;;29.40;87.50;;;;;;4972537;28;20435;-75
2022/06/14 10:25:10;;;;;;;7.80;3.40;;;29.80;85.80;;;;;;4977189;28;20457;-75
2022/06/14 10:30:50;;;;;;;6.83;2.50;;;29.80;89.00;;;;;;4977107;28;20550;-75
2022/06/14 10:33:21;;;;;;;8.00;3.37;;;29.90;86.70;;;;;;4976402;28;20408;-76
2022/06/14 10:36:01;;;;;;;7.20;2.80;;;29.80;89.50;;;;;;4975939;28;20995;-75
2022/06/14 10:38:48;;;;;;;8.20;3.73;;;29.90;86.60;;;;;;4976139;28;20828;-75
2022/06/14 10:41:29;;;;;;;3.83;3.43;;;30.00;90.40;;;;;;4975779;28;20458;-75
2022/06/14 10:44:12;;;;;;;5.97;3.03;;;30.60;87.50;;;;;;4975950;28;20820;-76
2022/06/14 10:46:45;;;;;;;3.47;3.10;;;30.30;85.60;;;;;;4975950;28;20927;-75
2022/06/14 10:49:23;;;;;;;4.13;3.20;;;29.90;83.90;;;;;;4975890;28;20455;-75
2022/06/14 10:52:17;;;;;;;7.87;2.63;;;29.70;84.30;;;;;;4975305;28;20470;-75
2022/06/14 10:54:59;;;;;;;6.10;3.07;;;30.10;83.80;;;;;;4975956;28;20419;-75
2022/06/14 10:58:02;;;;;;;5.63;3.77;;;30.50;84.80;;;;;;4975833;28;20768;-75
2022/06/14 11:00:35;;;;;;;3.77;3.37;;;30.40;82.10;;;;;;4975937;28;20427;-76
2022/06/14 11:03:12;;;;;;;8.47;3.50;;;30.20;83.40;;;;;;4974162;28;20427;-76
2022/06/14 11:06:03;;;;;;;5.83;2.90;;;30.00;86.10;;;;;;4975836;28;20414;-74
2022/06/14 11:08:50;;;;;;;5.00;3.10;;;29.60;80.00;;;;;;4975785;28;20408;-76
2022/06/14 11:11:37;;;;;;;4.00;3.10;;;28.90;83.80;;;;;;4975146;28;20458;-76
2022/06/14 11:14:35;;;;;;;5.57;2.70;;;28.70;81.10;;;;;;4975466;28;20419;-76
2022/06/14 11:17:12;;;;;;;4.63;2.47;;;28.70;80.30;;;;;;4973005;28;20541;-75
2022/06/14 11:19:46;;;;;;;5.50;2.70;;;28.40;77.50;;;;;;4975500;28;20419;-75
2022/06/14 11:22:36;;;;;;;2.90;2.40;;;28.10;81.50;;;;;;4974976;28;20439;-76
2022/06/14 11:25:18;;;;;;;4.30;2.47;;;28.10;82.80;;;;;;4975398;28;20809;-76
2022/06/14 11:28:14;;;;;;;4.13;2.50;;;28.10;78.60;;;;;;4975215;28;20435;-76
2022/06/14 11:31:03;;;;;;;5.13;2.87;;;27.70;79.80;;;;;;4974511;28;20459;-75
2022/06/14 11:33:56;;;;;;;2.83;2.27;;;27.90;80.70;;;;;;4975023;28;20466;-76
2022/06/14 11:36:36;;;;;;;7.20;3.10;;;28.50;81.80;;;;;;4974191;28;20418;-75
2022/06/14 11:39:26;;;;;;;6.33;2.30;;;29.00;85.10;;;;;;4974774;28;20467;-75
2022/06/14 11:41:52;;;;;;;6.03;3.10;;;29.00;79.20;;;;;;4974655;28;20494;-76
2022/06/14 11:44:54;;;;;;;4.10;2.57;;;29.10;81.50;;;;;;4974846;28;20415;-76
2022/06/14 11:47:36;;;;;;;5.77;3.10;;;29.10;84.80;;;;;;4975216;28;20179;-75
2022/06/14 11:50:25;;;;;;;2.90;2.63;;;29.40;81.60;;;;;;4974528;28;20419;-76
2022/06/14 11:53:05;;;;;;;5.37;2.70;;;29.30;79.60;;;;;;4974430;28;20440;-76
2022/06/14 11:55:48;;;;;;;3.60;2.37;;;28.90;83.20;;;;;;4973554;28;20427;-76
2022/06/14 11:58:31;;;;;;;6.10;3.07;;;28.70;80.60;;;;;;4974934;28;20404;-77
2022/06/14 12:01:14;;;;;;;5.70;3.60;;;27.80;81.10;;;;;;4974327;28;20435;-76
2022/06/14 12:03:59;;;;;;;4.33;2.90;;;27.10;82.90;;;;;;4974593;28;20411;-77
2022/06/14 12:06:39;;;;;;;13.23;3.30;;;27.30;84.30;;;;;;4974626;28;20454;-76
2022/06/14 12:09:34;;;;;;;4.20;2.97;;;27.30;83.50;;;;;;4974523;28;20503;-76
2022/06/14 12:12:10;;;;;;;5.13;2.40;;;27.40;84.80;;;;;;4974065;28;20473;-76
2022/06/14 12:14:54;;;;;;;3.53;2.87;;;27.40;83.10;;;;;;4975631;28;20416;-77
2022/06/14 12:17:42;;;;;;;6.90;2.80;;;27.40;81.50;;;;;;4974032;28;20784;-76
2022/06/14 12:20:15;;;;;;;4.30;2.70;;;27.40;82.80;;;;;;4975006;28;20412;-75
2022/06/14 12:22:43;;;;;;;5.73;2.30;;;27.20;80.80;;;;;;4975002;28;20445;-76
2022/06/14 12:28:09;;;;;;;4.10;2.60;;;27.20;83.90;;;;;;4974292;28;20467;-76
2022/06/14 12:30:36;;;;;;;6.17;2.97;;;27.30;85.50;;;;;;4974387;28;20470;-74
2022/06/14 12:33:19;;;;;;;2.30;2.17;;;27.20;83.10;;;;;;4976767;28;20454;-75
2022/06/14 12:35:57;;;;;;;3.00;2.53;;;27.20;84.00;;;;;;4988694;28;20423;-76
2022/06/14 12:38:37;;;;;;;3.20;2.60;;;27.20;83.00;;;;;;4985072;28;20426;-76
2022/06/14 12:41:21;;;;;;;4.97;2.63;;;27.20;83.70;;;;;;4986347;28;20458;-75
2022/06/14 12:44:01;;;;;;;3.57;3.23;;;27.00;81.20;;;;;;4987252;28;21003;-75
2022/06/14 12:46:31;;;;;;;6.37;3.10;;;26.90;83.20;;;;;;4979980;28;20430;-76
2022/06/14 12:49:15;;;;;;;5.20;2.57;;;26.80;80.30;;;;;;4988532;28;20926;-77
2022/06/14 12:51:55;;;;;;;2.97;2.17;;;26.80;79.20;;;;;;4976569;28;20674;-77
2022/06/14 12:54:43;;;;;;;9.10;2.97;;;26.60;81.50;;;;;;4984082;28;20438;-77
2022/06/14 12:57:38;;;;;;;4.07;3.30;;;26.70;82.80;;;;;;4985428;28;20413;-75
2022/06/14 13:00:03;;;;;;;10.83;2.47;;;26.80;82.80;;;;;;4992387;28;20473;-78
2022/06/14 13:03:00;;;;;;;5.10;2.60;;;26.80;84.20;;;;;;4988506;28;20442;-75
2022/06/14 13:05:33;;;;;;;3.13;2.90;;;26.80;83.90;;;;;;4977308;28;20727;-77
2022/06/14 13:08:14;;;;;;;5.27;2.70;;;26.80;82.90;;;;;;4981952;28;20451;-77
2022/06/14 13:10:52;;;;;;;4.97;2.20;;;26.80;86.20;;;;;;4979176;28;20479;-77
2022/06/14 13:13:35;;;;;;;8.63;3.17;;;27.00;89.80;;;;;;4988904;28;20441;-76
2022/06/14 13:16:13;;;;;;;4.37;2.93;;;26.60;82.10;;;;;;4990028;28;20557;-78
2022/06/14 13:19:19;;;;;;;5.90;3.57;;;26.60;85.50;;;;;;4987630;28;20508;-77
2022/06/14 13:21:57;;;;;;;3.27;2.83;;;26.50;87.40;;;;;;4989787;28;20462;-79
2022/06/14 13:25:18;;;;;;;5.47;3.43;;;26.50;86.10;;;;;;4992969;28;20433;-78
2022/06/14 13:28:08;;;;;;;4.70;3.50;;;26.60;90.00;;;;;;4986683;28;20486;-77
2022/06/14 13:30:44;;;;;;;7.40;2.63;;;26.70;88.00;;;;;;4988885;28;20501;-76
2022/06/14 13:33:43;;;;;;;5.77;3.47;;;26.60;88.60;;;;;;4989748;28;20430;-76
2022/06/14 13:36:32;;;;;;;5.33;3.10;;;26.70;89.60;;;;;;4988919;28;20481;-75
2022/06/14 13:39:13;;;;;;;6.30;2.90;;;26.60;87.30;;;;;;4984968;28;20427;-75
2022/06/14 13:42:02;;;;;;;4.90;2.90;;;26.30;87.70;;;;;;4986469;28;20502;-76
2022/06/14 13:45:04;;;;;;;4.93;3.07;;;26.30;88.30;;;;;;4984664;28;20522;-76
2022/06/14 13:47:41;;;;;;;2.93;2.70;;;26.50;88.90;;;;;;4977435;28;20492;-75
2022/06/14 13:50:25;;;;;;;5.47;2.97;;;26.60;89.50;;;;;;4990066;28;20903;-75
2022/06/14 13:52:58;;;;;;;8.37;2.90;;;26.60;88.10;;;;;;4983504;28;20450;-76
2022/06/14 13:55:30;;;;;;;3.50;2.80;;;26.60;88.50;;;;;;4979517;28;20431;-77
2022/06/14 13:58:11;;;;;;;2.50;2.33;;;26.40;89.50;;;;;;4975215;28;20502;-75
2022/06/14 14:00:52;;;;;;;4.27;2.70;;;26.30;86.80;;;;;;4980318;28;20501;-73
2022/06/14 14:03:45;;;;;;;6.70;2.90;;;26.30;87.90;;;;;;4994584;28;20911;-76
2022/06/14 14:06:31;;;;;;;3.30;2.47;;;26.40;88.20;;;;;;4979669;28;20423;-76
2022/06/14 14:09:11;;;;;;;5.43;2.90;;;26.40;89.90;;;;;;4990231;28;20672;-75
2022/06/14 14:11:49;;;;;;;5.60;3.33;;;26.50;87.80;;;;;;4994124;28;20471;-77
2022/06/14 14:14:21;;;;;;;6.97;3.20;;;26.50;86.90;;;;;;4996700;28;21061;-79
2022/06/14 14:17:11;;;;;;;4.50;3.30;;;26.30;87.60;;;;;;4998776;28;20900;-79
2022/06/14 14:20:01;;;;;;;5.10;3.07;;;26.30;86.80;;;;;;4998839;28;20402;-78
2022/06/14 14:22:32;;;;;;;7.40;3.20;;;26.30;88.40;;;;;;4998508;28;20426;-78
2022/06/14 14:25:20;;;;;;;3.93;3.17;;;26.40;87.00;;;;;;4999286;28;20512;-79
2022/06/14 14:27:51;;;;;;;2.83;2.63;;;26.50;85.20;;;;;;4998601;28;20492;-79
2022/06/14 14:30:23;;;;;;;3.70;2.60;;;26.50;86.40;;;;;;4998952;28;20406;-78
2022/06/14 14:32:57;;;;;;;2.93;2.63;;;26.50;86.70;;;;;;4993363;28;20494;-76
2022/06/14 14:35:25;;;;;;;8.13;3.10;;;26.40;86.60;;;;;;4987531;28;20513;-79
2022/06/14 14:38:28;;;;;;;3.63;2.73;;;26.40;89.10;;;;;;4979928;28;20776;-79
2022/06/14 14:41:37;;;;;;;3.23;2.93;;;26.40;86.40;;;;;;4967512;28;20423;-79
2022/06/14 14:44:12;;;;;;;3.13;2.80;;;26.30;87.00;;;;;;4979819;28;20509;-80
2022/06/14 14:46:43;;;;;;;4.17;2.73;;;26.30;87.40;;;;;;4989810;28;20425;-79
2022/06/14 14:49:35;;;;;;;4.03;2.70;;;26.30;87.50;;;;;;4990883;28;20431;-78
2022/06/14 14:52:17;;;;;;;5.17;2.73;;;26.30;87.90;;;;;;4999046;28;20457;-78
2022/06/14 14:55:06;;;;;;;3.70;3.40;;;26.30;86.90;;;;;;4998621;28;20422;-78
2022/06/14 14:57:42;;;;;;;3.60;3.37;;;26.20;86.30;;;;;;4999109;28;20410;-78
2022/06/14 15:06:48;;;;;;;6.90;3.30;;;26.30;87.30;;;;;;4999429;28;20470;-79
2022/06/14 15:09:23;;;;;;;4.23;2.63;;;26.30;89.60;;;;;;4988917;28;20423;-76
2022/06/14 15:11:57;;;;;;;3.87;2.57;;;26.40;87.10;;;;;;4974940;28;20489;-75
2022/06/14 15:14:24;;;;;;;5.83;2.40;;;26.30;87.20;;;;;;4975398;28;20920;-75
2022/06/14 15:19:54;;;;;;;3.80;2.90;;;26.10;87.50;;;;;;4975158;28;20419;-75
2022/06/14 15:22:22;;;;;;;5.63;4.10;;;26.20;88.90;;;;;;4974907;28;20526;-75
2022/06/14 15:24:51;;;;;;;6.10;2.80;;;26.20;89.50;;;;;;4975009;28;20455;-75
2022/06/14 15:27:28;;;;;;;3.37;3.07;;;26.30;89.10;;;;;;4980453;28;20422;-75
2022/06/14 15:29:54;;;;;;;7.30;3.03;;;26.10;88.20;;;;;;4987382;28;20521;-75
2022/06/14 15:32:29;;;;;;;3.13;2.83;;;26.00;87.90;;;;;;4985442;28;20549;-75
2022/06/14 15:34:57;;;;;;;3.63;3.10;;;25.90;87.50;;;;;;4980450;28;20198;-73
2022/06/14 15:37:25;;;;;;;2.50;2.30;;;25.90;88.60;;;;;;4979904;28;20529;-75
2022/06/14 15:40:19;;;;;;;3.37;2.50;;;26.00;89.20;;;;;;4986802;28;20446;-76
2022/06/14 15:42:56;;;;;;;3.77;2.90;;;26.00;89.80;;;;;;4984368;28;20865;-74